Terminal Aerodrome Forecast
Issued by NWS

Home | Current Version | Previous Version | Text Only | Print | Product List | Glossary On
Versions: 1 2 3 4 5 6 7 8 9 10 11 12 13 14 15 16 17 18 19 20 21 22 23
000
FTUS45 KGJT 221208 AAA
TAFMTJ
TAF AMD
KMTJ 221208Z 2212/2312 15006KT P6SM VCTS SCT060CB BKN080 BKN110
      TEMPO 2212/2213 TS BKN050CB
     FM221500 VRB03KT P6SM SCT100
     FM221900 28007KT P6SM SCT100
     FM230200 14005KT P6SM FEW140 SCT250
     FM230600 11005KT P6SM FEW250=

USA.gov is the U.S. government's official web portal to all federal, state and local government web resources and services.